sensor_id;sensor_type;location;lat;lon;timestamp;pressure;altitude;pressure_sealevel;temperature;humidity
51468;BME280;37545;45.302;-122.946;2022-09-20T00:01:33;100288.16;;;29.57;29.21
51468;BME280;37545;45.302;-122.946;2022-09-20T00:04:03;100291.69;;;29.57;28.53
51468;BME280;37545;45.302;-122.946;2022-09-20T00:06:33;100291.84;;;29.54;28.70
51468;BME280;37545;45.302;-122.946;2022-09-20T00:09:03;100292.81;;;29.53;30.03
51468;BME280;37545;45.302;-122.946;2022-09-20T00:11:33;100287.56;;;29.52;30.25
51468;BME280;37545;45.302;-122.946;2022-09-20T00:14:04;100285.41;;;29.42;30.26
51468;BME280;37545;45.302;-122.946;2022-09-20T00:16:35;100286.63;;;29.37;30.54
51468;BME280;37545;45.302;-122.946;2022-09-20T00:19:04;100288.69;;;29.32;30.02
51468;BME280;37545;45.302;-122.946;2022-09-20T00:21:35;100286.97;;;29.31;29.52
51468;BME280;37545;45.302;-122.946;2022-09-20T00:24:04;100279.25;;;29.26;29.23
51468;BME280;37545;45.302;-122.946;2022-09-20T00:26:33;100286.47;;;29.24;28.70
51468;BME280;37545;45.302;-122.946;2022-09-20T00:29:02;100283.19;;;29.19;30.43
51468;BME280;37545;45.302;-122.946;2022-09-20T00:31:31;100277.16;;;29.15;30.47
51468;BME280;37545;45.302;-122.946;2022-09-20T00:34:01;100283.81;;;29.07;28.61
51468;BME280;37545;45.302;-122.946;2022-09-20T00:36:48;100276.97;;;29.02;28.73
51468;BME280;37545;45.302;-122.946;2022-09-20T00:39:17;100278.06;;;28.98;30.03
51468;BME280;37545;45.302;-122.946;2022-09-20T00:41:45;100288.13;;;28.93;29.18
51468;BME280;37545;45.302;-122.946;2022-09-20T00:44:54;100285.00;;;28.85;29.52
51468;BME280;37545;45.302;-122.946;2022-09-20T00:47:34;100282.53;;;28.82;29.88
51468;BME280;37545;45.302;-122.946;2022-09-20T00:50:13;100292.53;;;28.77;30.76
51468;BME280;37545;45.302;-122.946;2022-09-20T00:52:44;100291.94;;;28.72;31.70
51468;BME280;37545;45.302;-122.946;2022-09-20T00:55:23;100292.50;;;28.61;32.47
51468;BME280;37545;45.302;-122.946;2022-09-20T00:57:53;100296.53;;;28.52;33.07
51468;BME280;37545;45.302;-122.946;2022-09-20T01:00:22;100294.22;;;28.45;33.30
51468;BME280;37545;45.302;-122.946;2022-09-20T01:02:53;100298.75;;;28.42;31.69
51468;BME280;37545;45.302;-122.946;2022-09-20T01:05:25;100295.22;;;28.42;30.98
51468;BME280;37545;45.302;-122.946;2022-09-20T01:07:56;100300.56;;;28.42;30.74
51468;BME280;37545;45.302;-122.946;2022-09-20T01:10:25;100306.03;;;28.39;31.93
51468;BME280;37545;45.302;-122.946;2022-09-20T01:12:53;100305.72;;;28.28;32.76
51468;BME280;37545;45.302;-122.946;2022-09-20T01:15:23;100310.69;;;28.18;32.99
51468;BME280;37545;45.302;-122.946;2022-09-20T01:17:54;100321.78;;;28.09;32.58
51468;BME280;37545;45.302;-122.946;2022-09-20T01:20:26;100318.78;;;27.97;32.13
51468;BME280;37545;45.302;-122.946;2022-09-20T01:23:07;100314.84;;;27.87;32.06
51468;BME280;37545;45.302;-122.946;2022-09-20T01:28:44;100329.75;;;27.72;33.09
51468;BME280;37545;45.302;-122.946;2022-09-20T01:31:17;100331.03;;;27.64;33.75
51468;BME280;37545;45.302;-122.946;2022-09-20T01:33:51;100337.53;;;27.58;34.24
51468;BME280;37545;45.302;-122.946;2022-09-20T01:36:24;100339.53;;;27.53;33.78
51468;BME280;37545;45.302;-122.946;2022-09-20T01:39:03;100335.31;;;27.49;35.11
51468;BME280;37545;45.302;-122.946;2022-09-20T01:41:39;100339.97;;;27.44;34.78
51468;BME280;37545;45.302;-122.946;2022-09-20T01:44:15;100343.84;;;27.36;34.45
51468;BME280;37545;45.302;-122.946;2022-09-20T01:46:54;100344.22;;;27.29;35.43
51468;BME280;37545;45.302;-122.946;2022-09-20T01:49:31;100341.09;;;27.19;36.27
51468;BME280;37545;45.302;-122.946;2022-09-20T01:52:26;100348.81;;;27.05;37.31
51468;BME280;37545;45.302;-122.946;2022-09-20T01:58:30;100345.03;;;26.71;37.17
51468;BME280;37545;45.302;-122.946;2022-09-20T02:01:34;100354.16;;;26.64;36.91
51468;BME280;37545;45.302;-122.946;2022-09-20T02:07:41;100354.41;;;26.37;37.51
51468;BME280;37545;45.302;-122.946;2022-09-20T02:10:50;100357.63;;;26.23;37.36
51468;BME280;37545;45.302;-122.946;2022-09-20T02:13:29;100361.66;;;26.11;37.84
51468;BME280;37545;45.302;-122.946;2022-09-20T02:16:18;100363.81;;;26.02;37.95
51468;BME280;37545;45.302;-122.946;2022-09-20T02:19:15;100358.31;;;25.84;38.02
51468;BME280;37545;45.302;-122.946;2022-09-20T02:21:58;100364.00;;;25.75;37.81
51468;BME280;37545;45.302;-122.946;2022-09-20T02:24:40;100360.91;;;25.64;39.33
51468;BME280;37545;45.302;-122.946;2022-09-20T02:27:17;100372.75;;;25.54;39.60
51468;BME280;37545;45.302;-122.946;2022-09-20T02:30:02;100378.53;;;25.41;39.77
51468;BME280;37545;45.302;-122.946;2022-09-20T02:33:05;100383.53;;;25.25;39.73
51468;BME280;37545;45.302;-122.946;2022-09-20T02:35:51;100382.41;;;25.07;39.88
51468;BME280;37545;45.302;-122.946;2022-09-20T02:38:35;100382.78;;;24.97;41.36
51468;BME280;37545;45.302;-122.946;2022-09-20T02:41:40;100380.47;;;24.87;41.04
51468;BME280;37545;45.302;-122.946;2022-09-20T02:44:21;100394.13;;;24.75;41.24
51468;BME280;37545;45.302;-122.946;2022-09-20T02:46:58;100403.41;;;24.62;41.35
51468;BME280;37545;45.302;-122.946;2022-09-20T02:49:33;100397.75;;;24.46;41.72
51468;BME280;37545;45.302;-122.946;2022-09-20T02:52:15;100409.66;;;24.33;43.78
51468;BME280;37545;45.302;-122.946;2022-09-20T02:54:56;100401.16;;;24.23;44.27
51468;BME280;37545;45.302;-122.946;2022-09-20T02:57:35;100400.56;;;24.15;43.99
51468;BME280;37545;45.302;-122.946;2022-09-20T03:00:06;100406.97;;;24.08;43.96
51468;BME280;37545;45.302;-122.946;2022-09-20T03:02:47;100404.59;;;23.98;42.80
51468;BME280;37545;45.302;-122.946;2022-09-20T03:05:22;100417.19;;;23.90;43.73
51468;BME280;37545;45.302;-122.946;2022-09-20T03:08:14;100414.00;;;23.79;43.36
51468;BME280;37545;45.302;-122.946;2022-09-20T03:10:53;100421.25;;;23.71;43.67
51468;BME280;37545;45.302;-122.946;2022-09-20T03:13:35;100419.81;;;23.60;43.70
51468;BME280;37545;45.302;-122.946;2022-09-20T03:16:15;100422.69;;;23.53;43.91
51468;BME280;37545;45.302;-122.946;2022-09-20T03:18:50;100422.84;;;23.47;44.00
51468;BME280;37545;45.302;-122.946;2022-09-20T03:21:30;100432.63;;;23.43;44.51
51468;BME280;37545;45.302;-122.946;2022-09-20T03:24:12;100428.44;;;23.36;44.75
51468;BME280;37545;45.302;-122.946;2022-09-20T03:26:54;100444.41;;;23.31;44.80
51468;BME280;37545;45.302;-122.946;2022-09-20T03:29:38;100442.81;;;23.26;45.67
51468;BME280;37545;45.302;-122.946;2022-09-20T03:32:24;100443.91;;;23.18;45.52
51468;BME280;37545;45.302;-122.946;2022-09-20T03:35:01;100440.50;;;23.13;44.88
51468;BME280;37545;45.302;-122.946;2022-09-20T03:37:46;100437.13;;;23.08;45.13
51468;BME280;37545;45.302;-122.946;2022-09-20T03:40:46;100432.97;;;22.99;45.03
51468;BME280;37545;45.302;-122.946;2022-09-20T03:43:28;100439.16;;;22.97;45.77
51468;BME280;37545;45.302;-122.946;2022-09-20T03:46:13;100446.34;;;22.92;46.16
51468;BME280;37545;45.302;-122.946;2022-09-20T03:49:02;100442.13;;;22.85;45.79
51468;BME280;37545;45.302;-122.946;2022-09-20T03:51:37;100446.66;;;22.79;46.13
51468;BME280;37545;45.302;-122.946;2022-09-20T04:00:23;100426.28;;;22.52;46.45
51468;BME280;37545;45.302;-122.946;2022-09-20T04:03:12;100442.09;;;22.52;46.64
51468;BME280;37545;45.302;-122.946;2022-09-20T04:06:00;100444.88;;;22.46;46.44
51468;BME280;37545;45.302;-122.946;2022-09-20T04:08:49;100443.22;;;22.40;46.58
51468;BME280;37545;45.302;-122.946;2022-09-20T04:11:29;100443.41;;;22.34;47.72
51468;BME280;37545;45.302;-122.946;2022-09-20T04:14:11;100447.97;;;22.27;48.41
51468;BME280;37545;45.302;-122.946;2022-09-20T04:16:50;100447.22;;;22.19;48.95
51468;BME280;37545;45.302;-122.946;2022-09-20T04:19:25;100446.47;;;22.14;49.46
51468;BME280;37545;45.302;-122.946;2022-09-20T04:21:57;100451.88;;;22.08;49.26
51468;BME280;37545;45.302;-122.946;2022-09-20T04:24:36;100449.50;;;21.97;50.66
51468;BME280;37545;45.302;-122.946;2022-09-20T04:27:13;100458.59;;;21.82;50.72
51468;BME280;37545;45.302;-122.946;2022-09-20T04:29:48;100465.00;;;21.70;51.19
51468;BME280;37545;45.302;-122.946;2022-09-20T04:32:27;100462.63;;;21.58;51.48
51468;BME280;37545;45.302;-122.946;2022-09-20T04:35:04;100468.94;;;21.49;51.79
51468;BME280;37545;45.302;-122.946;2022-09-20T04:37:56;100479.66;;;21.40;51.81
51468;BME280;37545;45.302;-122.946;2022-09-20T04:40:46;100480.66;;;21.31;52.62
51468;BME280;37545;45.302;-122.946;2022-09-20T04:43:52;100489.63;;;21.21;53.32
51468;BME280;37545;45.302;-122.946;2022-09-20T04:55:50;100500.94;;;20.75;53.01
51468;BME280;37545;45.302;-122.946;2022-09-20T04:58:42;100491.63;;;20.57;53.41
51468;BME280;37545;45.302;-122.946;2022-09-20T05:11:02;100499.97;;;20.25;55.55
51468;BME280;37545;45.302;-122.946;2022-09-20T05:13:54;100507.00;;;20.20;55.71
51468;BME280;37545;45.302;-122.946;2022-09-20T05:16:34;100503.56;;;20.16;55.90
51468;BME280;37545;45.302;-122.946;2022-09-20T05:19:20;100511.53;;;20.10;55.43
51468;BME280;37545;45.302;-122.946;2022-09-20T05:22:09;100504.63;;;20.04;54.44
51468;BME280;37545;45.302;-122.946;2022-09-20T05:25:06;100518.69;;;19.99;55.47
51468;BME280;37545;45.302;-122.946;2022-09-20T05:27:44;100513.50;;;19.93;55.90
51468;BME280;37545;45.302;-122.946;2022-09-20T05:30:24;100507.44;;;19.87;56.17
51468;BME280;37545;45.302;-122.946;2022-09-20T05:32:59;100517.09;;;19.85;56.45
51468;BME280;37545;45.302;-122.946;2022-09-20T05:35:37;100518.00;;;19.83;56.33
51468;BME280;37545;45.302;-122.946;2022-09-20T05:38:14;100503.16;;;19.80;56.68
51468;BME280;37545;45.302;-122.946;2022-09-20T05:40:56;100508.47;;;19.74;56.23
51468;BME280;37545;45.302;-122.946;2022-09-20T05:43:33;100509.44;;;19.65;56.38
51468;BME280;37545;45.302;-122.946;2022-09-20T05:46:13;100510.38;;;19.60;56.34
51468;BME280;37545;45.302;-122.946;2022-09-20T05:48:54;100500.00;;;19.49;56.32
51468;BME280;37545;45.302;-122.946;2022-09-20T05:51:38;100504.44;;;19.44;57.23
51468;BME280;37545;45.302;-122.946;2022-09-20T05:54:25;100505.38;;;19.38;57.90
51468;BME280;37545;45.302;-122.946;2022-09-20T05:57:07;100504.53;;;19.36;57.20
51468;BME280;37545;45.302;-122.946;2022-09-20T05:59:51;100513.31;;;19.32;57.36
51468;BME280;37545;45.302;-122.946;2022-09-20T06:02:32;100505.47;;;19.26;57.26
51468;BME280;37545;45.302;-122.946;2022-09-20T06:05:09;100503.81;;;19.19;57.49
51468;BME280;37545;45.302;-122.946;2022-09-20T06:08:03;100511.72;;;19.14;57.24
51468;BME280;37545;45.302;-122.946;2022-09-20T06:10:45;100516.16;;;19.11;57.32
51468;BME280;37545;45.302;-122.946;2022-09-20T06:13:37;100524.91;;;19.07;57.96
51468;BME280;37545;45.302;-122.946;2022-09-20T06:16:11;100520.63;;;18.98;58.38
51468;BME280;37545;45.302;-122.946;2022-09-20T06:18:48;100525.94;;;18.90;58.77
51468;BME280;37545;45.302;-122.946;2022-09-20T06:21:28;100518.09;;;18.87;59.08
51468;BME280;37545;45.302;-122.946;2022-09-20T06:24:01;100512.91;;;18.75;61.08
51468;BME280;37545;45.302;-122.946;2022-09-20T06:26:34;100516.47;;;18.66;61.00
51468;BME280;37545;45.302;-122.946;2022-09-20T06:29:06;100507.78;;;18.62;60.77
51468;BME280;37545;45.302;-122.946;2022-09-20T06:31:41;100521.75;;;18.61;60.72
51468;BME280;37545;45.302;-122.946;2022-09-20T06:34:12;100516.53;;;18.58;60.64
51468;BME280;37545;45.302;-122.946;2022-09-20T06:36:42;100508.72;;;18.54;60.89
51468;BME280;37545;45.302;-122.946;2022-09-20T06:39:36;100513.94;;;18.52;61.26
51468;BME280;37545;45.302;-122.946;2022-09-20T06:42:25;100515.78;;;18.44;61.67
51468;BME280;37545;45.302;-122.946;2022-09-20T06:44:55;100511.44;;;18.37;62.03
51468;BME280;37545;45.302;-122.946;2022-09-20T06:47:25;100508.84;;;18.32;61.79
51468;BME280;37545;45.302;-122.946;2022-09-20T06:49:54;100509.75;;;18.27;62.00
51468;BME280;37545;45.302;-122.946;2022-09-20T06:52:24;100505.44;;;18.21;62.09
51468;BME280;37545;45.302;-122.946;2022-09-20T06:54:54;100504.56;;;18.17;62.25
51468;BME280;37545;45.302;-122.946;2022-09-20T06:57:26;100508.09;;;18.13;62.91
51468;BME280;37545;45.302;-122.946;2022-09-20T06:59:57;100500.25;;;18.09;62.85
51468;BME280;37545;45.302;-122.946;2022-09-20T07:02:27;100502.91;;;18.04;62.71
51468;BME280;37545;45.302;-122.946;2022-09-20T07:04:56;100505.56;;;17.93;63.73
51468;BME280;37545;45.302;-122.946;2022-09-20T07:07:25;100514.31;;;17.88;63.41
51468;BME280;37545;45.302;-122.946;2022-09-20T07:09:53;100516.09;;;17.83;64.39
51468;BME280;37545;45.302;-122.946;2022-09-20T07:12:22;100521.31;;;17.75;66.44
51468;BME280;37545;45.302;-122.946;2022-09-20T07:14:51;100523.09;;;17.64;66.95
51468;BME280;37545;45.302;-122.946;2022-09-20T07:17:19;100519.63;;;17.58;66.45
51468;BME280;37545;45.302;-122.946;2022-09-20T07:19:50;100522.25;;;17.60;66.61
51468;BME280;37545;45.302;-122.946;2022-09-20T07:22:18;100527.50;;;17.57;67.01
51468;BME280;37545;45.302;-122.946;2022-09-20T07:24:47;100533.59;;;17.54;66.40
51468;BME280;37545;45.302;-122.946;2022-09-20T07:27:16;100524.03;;;17.50;66.54
51468;BME280;37545;45.302;-122.946;2022-09-20T07:29:44;100526.66;;;17.46;67.14
51468;BME280;37545;45.302;-122.946;2022-09-20T07:32:13;100523.16;;;17.41;66.75
51468;BME280;37545;45.302;-122.946;2022-09-20T07:34:43;100527.53;;;17.38;66.33
51468;BME280;37545;45.302;-122.946;2022-09-20T07:37:16;100523.19;;;17.33;65.99
51468;BME280;37545;45.302;-122.946;2022-09-20T07:39:45;100531.03;;;17.31;66.04
51468;BME280;37545;45.302;-122.946;2022-09-20T07:42:14;100524.91;;;17.29;65.30
51468;BME280;37545;45.302;-122.946;2022-09-20T07:44:42;100519.72;;;17.26;65.26
51468;BME280;37545;45.302;-122.946;2022-09-20T07:47:11;100524.94;;;17.25;65.60
51468;BME280;37545;45.302;-122.946;2022-09-20T07:49:40;100523.19;;;17.17;65.65
51468;BME280;37545;45.302;-122.946;2022-09-20T07:52:09;100515.38;;;17.05;65.40
51468;BME280;37545;45.302;-122.946;2022-09-20T07:54:41;100515.38;;;17.05;65.52
51468;BME280;37545;45.302;-122.946;2022-09-20T07:57:11;100510.16;;;16.98;66.44
51468;BME280;37545;45.302;-122.946;2022-09-20T07:59:40;100506.69;;;16.95;66.44
51468;BME280;37545;45.302;-122.946;2022-09-20T08:02:12;100511.91;;;16.95;66.65
51468;BME280;37545;45.302;-122.946;2022-09-20T08:04:41;100516.25;;;16.93;67.36
51468;BME280;37545;45.302;-122.946;2022-09-20T08:07:10;100520.63;;;16.91;67.02
51468;BME280;37545;45.302;-122.946;2022-09-20T08:09:41;100515.41;;;16.88;66.87
51468;BME280;37545;45.302;-122.946;2022-09-20T08:12:09;100518.00;;;16.87;67.74
51468;BME280;37545;45.302;-122.946;2022-09-20T08:14:39;100511.03;;;16.84;68.20
51468;BME280;37545;45.302;-122.946;2022-09-20T08:17:09;100511.91;;;16.82;68.24
51468;BME280;37545;45.302;-122.946;2022-09-20T08:19:38;100501.44;;;16.77;69.10
51468;BME280;37545;45.302;-122.946;2022-09-20T08:22:08;100502.28;;;16.73;69.30
51468;BME280;37545;45.302;-122.946;2022-09-20T08:24:38;100500.56;;;16.70;68.98
51468;BME280;37545;45.302;-122.946;2022-09-20T08:27:08;100504.91;;;16.67;68.98
51468;BME280;37545;45.302;-122.946;2022-09-20T08:29:38;100498.81;;;16.63;69.32
51468;BME280;37545;45.302;-122.946;2022-09-20T08:32:07;100504.03;;;16.59;68.37
51468;BME280;37545;45.302;-122.946;2022-09-20T08:34:36;100496.19;;;16.55;68.59
51468;BME280;37545;45.302;-122.946;2022-09-20T08:37:06;100502.28;;;16.50;69.94
51468;BME280;37545;45.302;-122.946;2022-09-20T08:39:34;100497.94;;;16.47;70.07
51468;BME280;37545;45.302;-122.946;2022-09-20T08:42:12;100490.97;;;16.45;70.47
51468;BME280;37545;45.302;-122.946;2022-09-20T08:44:46;100492.69;;;16.41;70.52
51468;BME280;37545;45.302;-122.946;2022-09-20T08:47:21;100495.31;;;16.38;69.42
51468;BME280;37545;45.302;-122.946;2022-09-20T08:49:52;100494.44;;;16.36;70.34
51468;BME280;37545;45.302;-122.946;2022-09-20T08:52:26;100500.50;;;16.29;71.25
51468;BME280;37545;45.302;-122.946;2022-09-20T08:54:57;100509.19;;;16.20;71.87
51468;BME280;37545;45.302;-122.946;2022-09-20T08:57:30;100514.38;;;16.09;73.30
51468;BME280;37545;45.302;-122.946;2022-09-20T09:00:02;100516.94;;;16.00;72.16
51468;BME280;37545;45.302;-122.946;2022-09-20T09:02:31;100516.91;;;15.94;71.34
51468;BME280;37545;45.302;-122.946;2022-09-20T09:05:04;100514.31;;;15.88;71.15
51468;BME280;37545;45.302;-122.946;2022-09-20T09:07:38;100512.53;;;15.87;71.75
51468;BME280;37545;45.302;-122.946;2022-09-20T09:10:08;100518.66;;;15.86;71.53
51468;BME280;37545;45.302;-122.946;2022-09-20T09:12:40;100522.09;;;15.85;71.69
51468;BME280;37545;45.302;-122.946;2022-09-20T09:15:20;100522.09;;;15.82;72.40
51468;BME280;37545;45.302;-122.946;2022-09-20T09:17:54;100528.19;;;15.79;71.73
51468;BME280;37545;45.302;-122.946;2022-09-20T09:20:24;100533.41;;;15.79;72.66
51468;BME280;37545;45.302;-122.946;2022-09-20T09:23:00;100523.81;;;15.74;73.23
51468;BME280;37545;45.302;-122.946;2022-09-20T09:25:31;100529.81;;;15.68;72.96
51468;BME280;37545;45.302;-122.946;2022-09-20T09:28:03;100522.84;;;15.64;72.75
51468;BME280;37545;45.302;-122.946;2022-09-20T09:30:40;100529.81;;;15.63;73.29
51468;BME280;37545;45.302;-122.946;2022-09-20T09:33:23;100528.91;;;15.60;73.15
51468;BME280;37545;45.302;-122.946;2022-09-20T09:35:56;100521.09;;;15.58;73.01
51468;BME280;37545;45.302;-122.946;2022-09-20T09:38:26;100506.28;;;15.57;73.39
51468;BME280;37545;45.302;-122.946;2022-09-20T09:40:57;100501.06;;;15.54;73.55
51468;BME280;37545;45.302;-122.946;2022-09-20T09:43:29;100506.28;;;15.51;73.42
51468;BME280;37545;45.302;-122.946;2022-09-20T09:46:16;100502.78;;;15.49;73.14
51468;BME280;37545;45.302;-122.946;2022-09-20T09:48:47;100499.28;;;15.45;73.75
51468;BME280;37545;45.302;-122.946;2022-09-20T09:51:19;100487.09;;;15.43;73.34
51468;BME280;37545;45.302;-122.946;2022-09-20T09:53:49;100489.69;;;15.41;72.97
51468;BME280;37545;45.302;-122.946;2022-09-20T09:56:34;100487.09;;;15.40;72.87
51468;BME280;37545;45.302;-122.946;2022-09-20T09:59:34;100483.59;;;15.38;73.12
51468;BME280;37545;45.302;-122.946;2022-09-20T10:02:26;100484.44;;;15.37;72.28
51468;BME280;37545;45.302;-122.946;2022-09-20T10:05:01;100490.53;;;15.36;71.54
51468;BME280;37545;45.302;-122.946;2022-09-20T10:07:39;100479.22;;;15.34;70.58
51468;BME280;37545;45.302;-122.946;2022-09-20T10:10:19;100480.97;;;15.32;68.70
51468;BME280;37545;45.302;-122.946;2022-09-20T10:12:59;100486.16;;;15.30;69.04
51468;BME280;37545;45.302;-122.946;2022-09-20T10:15:38;100480.06;;;15.26;68.88
51468;BME280;37545;45.302;-122.946;2022-09-20T10:18:24;100480.94;;;15.27;68.60
51468;BME280;37545;45.302;-122.946;2022-09-20T10:21:03;100475.69;;;15.25;68.55
51468;BME280;37545;45.302;-122.946;2022-09-20T10:23:58;100477.44;;;15.23;67.24
51468;BME280;37545;45.302;-122.946;2022-09-20T10:26:42;100480.03;;;15.22;67.83
51468;BME280;37545;45.302;-122.946;2022-09-20T10:29:21;100478.28;;;15.19;67.61
51468;BME280;37545;45.302;-122.946;2022-09-20T10:32:03;100490.47;;;15.19;67.73
51468;BME280;37545;45.302;-122.946;2022-09-20T10:37:36;100492.16;;;15.15;72.12
51468;BME280;37545;45.302;-122.946;2022-09-20T10:40:22;100494.75;;;15.12;72.22
51468;BME280;37545;45.302;-122.946;2022-09-20T10:43:22;100495.59;;;15.10;72.58
51468;BME280;37545;45.302;-122.946;2022-09-20T10:46:00;100490.38;;;15.08;72.59
51468;BME280;37545;45.302;-122.946;2022-09-20T10:48:37;100493.81;;;15.07;72.35
51468;BME280;37545;45.302;-122.946;2022-09-20T10:51:12;100487.78;;;15.08;71.92
51468;BME280;37545;45.302;-122.946;2022-09-20T10:53:50;100492.09;;;15.09;71.89
51468;BME280;37545;45.302;-122.946;2022-09-20T10:56:27;100493.00;;;15.10;72.28
51468;BME280;37545;45.302;-122.946;2022-09-20T10:59:29;100495.59;;;15.10;72.38
51468;BME280;37545;45.302;-122.946;2022-09-20T11:02:14;100499.88;;;15.04;72.13
51468;BME280;37545;45.302;-122.946;2022-09-20T11:07:45;100492.09;;;15.03;71.76
51468;BME280;37545;45.302;-122.946;2022-09-20T11:10:21;100502.50;;;15.04;71.45
51468;BME280;37545;45.302;-122.946;2022-09-20T11:12:56;100485.09;;;14.99;70.36
51468;BME280;37545;45.302;-122.946;2022-09-20T11:15:30;100499.03;;;15.04;69.59
51468;BME280;37545;45.302;-122.946;2022-09-20T11:18:06;100504.25;;;15.04;69.64
51468;BME280;37545;45.302;-122.946;2022-09-20T11:20:42;100501.59;;;15.02;69.63
51468;BME280;37545;45.302;-122.946;2022-09-20T11:23:16;100499.00;;;15.01;68.69
51468;BME280;37545;45.302;-122.946;2022-09-20T11:25:48;100505.94;;;14.99;69.83
51468;BME280;37545;45.302;-122.946;2022-09-20T11:28:21;100512.00;;;14.98;68.84
51468;BME280;37545;45.302;-122.946;2022-09-20T11:30:58;100517.22;;;14.96;70.12
51468;BME280;37545;45.302;-122.946;2022-09-20T11:33:31;100518.91;;;14.93;70.56
51468;BME280;37545;45.302;-122.946;2022-09-20T11:36:16;100511.97;;;14.93;69.01
51468;BME280;37545;45.302;-122.946;2022-09-20T11:38:50;100512.88;;;14.97;68.55
51468;BME280;37545;45.302;-122.946;2022-09-20T11:41:23;100511.19;;;15.00;68.59
51468;BME280;37545;45.302;-122.946;2022-09-20T11:43:56;100509.44;;;15.04;69.47
51468;BME280;37545;45.302;-122.946;2022-09-20T11:46:30;100509.47;;;15.07;69.70
51468;BME280;37545;45.302;-122.946;2022-09-20T11:49:01;100501.63;;;15.04;67.11
51468;BME280;37545;45.302;-122.946;2022-09-20T11:51:49;100503.44;;;15.10;65.17
51468;BME280;37545;45.302;-122.946;2022-09-20T11:54:31;100512.09;;;15.10;64.49
51468;BME280;37545;45.302;-122.946;2022-09-20T11:57:05;100519.09;;;15.14;63.26
51468;BME280;37545;45.302;-122.946;2022-09-20T11:59:35;100515.63;;;15.17;63.30
51468;BME280;37545;45.302;-122.946;2022-09-20T12:02:15;100514.78;;;15.19;60.96
51468;BME280;37545;45.302;-122.946;2022-09-20T12:04:47;100522.63;;;15.24;59.78
51468;BME280;37545;45.302;-122.946;2022-09-20T12:07:24;100516.56;;;15.23;60.36
51468;BME280;37545;45.302;-122.946;2022-09-20T12:09:55;100530.44;;;15.25;61.18
51468;BME280;37545;45.302;-122.946;2022-09-20T12:12:35;100540.03;;;15.28;63.76
51468;BME280;37545;45.302;-122.946;2022-09-20T12:15:07;100532.22;;;15.28;62.23
51468;BME280;37545;45.302;-122.946;2022-09-20T12:21:16;100537.47;;;15.36;60.75
51468;BME280;37545;45.302;-122.946;2022-09-20T12:24:21;100551.38;;;15.36;60.32
51468;BME280;37545;45.302;-122.946;2022-09-20T12:26:54;100552.25;;;15.38;60.46
51468;BME280;37545;45.302;-122.946;2022-09-20T12:32:47;100567.06;;;15.45;59.08
51468;BME280;37545;45.302;-122.946;2022-09-20T12:38:50;100563.59;;;15.48;59.77
51468;BME280;37545;45.302;-122.946;2022-09-20T12:41:23;100567.13;;;15.48;58.96
51468;BME280;37545;45.302;-122.946;2022-09-20T12:43:56;100565.38;;;15.49;59.42
51468;BME280;37545;45.302;-122.946;2022-09-20T12:46:30;100569.72;;;15.48;58.51
51468;BME280;37545;45.302;-122.946;2022-09-20T12:49:33;100569.72;;;15.48;58.05
51468;BME280;37545;45.302;-122.946;2022-09-20T12:52:25;100569.72;;;15.48;57.96
51468;BME280;37545;45.302;-122.946;2022-09-20T12:55:24;100567.09;;;15.47;57.67
51468;BME280;37545;45.302;-122.946;2022-09-20T12:57:58;100577.53;;;15.48;57.91
51468;BME280;37545;45.302;-122.946;2022-09-20T13:00:31;100579.25;;;15.45;58.52
51468;BME280;37545;45.302;-122.946;2022-09-20T13:03:11;100584.44;;;15.42;57.46
51468;BME280;37545;45.302;-122.946;2022-09-20T13:05:41;100578.31;;;15.37;57.79
51468;BME280;37545;45.302;-122.946;2022-09-20T13:08:16;100577.47;;;15.38;58.66
51468;BME280;37545;45.302;-122.946;2022-09-20T13:10:48;100587.03;;;15.37;58.90
51468;BME280;37545;45.302;-122.946;2022-09-20T13:13:34;100592.22;;;15.39;59.81
51468;BME280;37545;45.302;-122.946;2022-09-20T13:16:17;100593.97;;;15.35;60.82
51468;BME280;37545;45.302;-122.946;2022-09-20T13:18:49;100603.50;;;15.33;62.47
51468;BME280;37545;45.302;-122.946;2022-09-20T13:21:22;100607.81;;;15.31;63.59
51468;BME280;37545;45.302;-122.946;2022-09-20T13:23:51;100608.69;;;15.28;63.68
51468;BME280;37545;45.302;-122.946;2022-09-20T13:26:24;100603.38;;;15.21;63.58
51468;BME280;37545;45.302;-122.946;2022-09-20T13:28:56;100615.56;;;15.22;63.57
51468;BME280;37545;45.302;-122.946;2022-09-20T13:31:28;100613.81;;;15.19;63.30
51468;BME280;37545;45.302;-122.946;2022-09-20T13:34:21;100623.34;;;15.17;62.46
51468;BME280;37545;45.302;-122.946;2022-09-20T13:36:51;100623.34;;;15.14;62.16
51468;BME280;37545;45.302;-122.946;2022-09-20T13:39:29;100631.97;;;15.08;61.88
51468;BME280;37545;45.302;-122.946;2022-09-20T13:42:03;100636.31;;;15.10;61.21
51468;BME280;37545;45.302;-122.946;2022-09-20T13:44:34;100637.16;;;15.05;61.92
51468;BME280;37545;45.302;-122.946;2022-09-20T13:47:21;100631.88;;;14.99;61.46
51468;BME280;37545;45.302;-122.946;2022-09-20T13:49:50;100636.22;;;14.99;60.88
51468;BME280;37545;45.302;-122.946;2022-09-20T13:52:24;100641.41;;;14.96;61.59
51468;BME280;37545;45.302;-122.946;2022-09-20T13:54:53;100639.63;;;14.92;61.66
51468;BME280;37545;45.302;-122.946;2022-09-20T13:57:26;100646.56;;;14.90;61.86
51468;BME280;37545;45.302;-122.946;2022-09-20T13:59:58;100644.78;;;14.88;61.48
51468;BME280;37545;45.302;-122.946;2022-09-20T14:02:29;100654.34;;;14.88;62.21